EZY42JP LFRB-EGKK
Flight info
| Callsign | EZY42JP |
|---|---|
| Flight time | 0h 54m |
| Altitude | 28000 |
| Route | NORBU DCT NOZHU DCT OTMET |
| Aircraft | A320/M-SDE2E3FGHIJ1RWXYZ/LB1 |
Departure
| Time | 2026-04-20 14:43 |
|---|---|
| Airport | Brest Bretagne airport (LFRB) |
Arrival
| Time | 2026-04-20 15:38 |
|---|---|
| Airport | London Gatwick Airport (EGKK) |
| Time | Latitude | Longitude | Altitude | Speed | Heading |
|---|---|---|---|---|---|
| 2026-04-20 14:22 | 48.44404 | -4.42139 | 324 ft | 0 kts | 140° |
| 2026-04-20 14:35 | 48.44411 | -4.42147 | 324 ft | 2 kts | 139° |
| 2026-04-20 14:35 | 48.44423 | -4.42163 | 323 ft | 2 kts | 140° |
| 2026-04-20 14:35 | 48.44436 | -4.42180 | 322 ft | 2 kts | 112° |
| 2026-04-20 14:36 | 48.44436 | -4.42203 | 321 ft | 2 kts | 51° |
| 2026-04-20 14:36 | 48.44432 | -4.42211 | 321 ft | 0 kts | 40° |
| 2026-04-20 14:38 | 48.44435 | -4.42207 | 324 ft | 2 kts | 40° |
| 2026-04-20 14:38 | 48.44446 | -4.42193 | 323 ft | 4 kts | 40° |
| 2026-04-20 14:39 | 48.44480 | -4.42148 | 324 ft | 9 kts | 42° |
| 2026-04-20 14:39 | 48.44536 | -4.42091 | 324 ft | 11 kts | 11° |
| 2026-04-20 14:39 | 48.44619 | -4.42128 | 321 ft | 16 kts | 341° |
| 2026-04-20 14:39 | 48.44698 | -4.42219 | 320 ft | 15 kts | 277° |
| 2026-04-20 14:40 | 48.44662 | -4.42385 | 312 ft | 19 kts | 249° |
| 2026-04-20 14:40 | 48.44619 | -4.42587 | 306 ft | 21 kts | 253° |
| 2026-04-20 14:40 | 48.44570 | -4.42812 | 302 ft | 23 kts | 250° |
| 2026-04-20 14:40 | 48.44518 | -4.43035 | 299 ft | 23 kts | 251° |
| 2026-04-20 14:41 | 48.44470 | -4.43251 | 302 ft | 20 kts | 251° |
| 2026-04-20 14:41 | 48.44427 | -4.43444 | 302 ft | 19 kts | 252° |
| 2026-04-20 14:41 | 48.44384 | -4.43636 | 302 ft | 19 kts | 251° |
| 2026-04-20 14:41 | 48.44375 | -4.43776 | 298 ft | 10 kts | 281° |
| 2026-04-20 14:42 | 48.44351 | -4.43817 | 297 ft | 7 kts | 146° |
| 2026-04-20 14:42 | 48.44351 | -4.43783 | 298 ft | 0 kts | 71° |
| 2026-04-20 14:43 | 48.44363 | -4.43729 | 300 ft | 26 kts | 71° |
| 2026-04-20 14:43 | 48.44510 | -4.43080 | 300 ft | 102 kts | 71° |
| 2026-04-20 14:43 | 48.44797 | -4.41806 | 467 ft | 142 kts | 70° |
| 2026-04-20 14:43 | 48.45137 | -4.40419 | 1253 ft | 143 kts | 62° |
| 2026-04-20 14:44 | 48.45834 | -4.39322 | 1976 ft | 154 kts | 35° |
| 2026-04-20 14:44 | 48.46921 | -4.38820 | 2529 ft | 179 kts | 8° |
| 2026-04-20 14:44 | 48.48242 | -4.38705 | 3049 ft | 202 kts | 8° |
| 2026-04-20 14:44 | 48.49733 | -4.38558 | 3601 ft | 227 kts | 8° |
| 2026-04-20 14:45 | 48.51393 | -4.38388 | 4218 ft | 252 kts | 8° |
| 2026-04-20 14:45 | 48.53195 | -4.38203 | 4928 ft | 272 kts | 6° |
| 2026-04-20 14:45 | 48.55109 | -4.38017 | 5915 ft | 278 kts | 5° |
| 2026-04-20 14:45 | 48.57047 | -4.37839 | 7055 ft | 280 kts | 4° |
| 2026-04-20 14:46 | 48.58994 | -4.37662 | 8139 ft | 281 kts | 4° |
| 2026-04-20 14:46 | 48.60957 | -4.37479 | 9234 ft | 283 kts | 3° |
| 2026-04-20 14:46 | 48.62932 | -4.37493 | 10319 ft | 286 kts | 352° |
| 2026-04-20 14:46 | 48.64892 | -4.38170 | 11120 ft | 298 kts | 342° |
| 2026-04-20 14:47 | 48.66946 | -4.39072 | 11765 ft | 314 kts | 341° |
| 2026-04-20 14:47 | 48.69066 | -4.40018 | 12674 ft | 320 kts | 340° |
| 2026-04-20 14:47 | 48.71220 | -4.40959 | 13613 ft | 325 kts | 343° |
| 2026-04-20 14:48 | 48.75829 | -4.40954 | 15261 ft | 344 kts | 10° |
| 2026-04-20 14:48 | 48.78098 | -4.39681 | 16069 ft | 351 kts | 21° |
| 2026-04-20 14:48 | 48.80335 | -4.38144 | 16882 ft | 355 kts | 20° |
| 2026-04-20 14:48 | 48.82602 | -4.36598 | 17686 ft | 359 kts | 20° |
| 2026-04-20 14:49 | 48.84897 | -4.35043 | 18470 ft | 363 kts | 20° |
| 2026-04-20 14:49 | 48.87218 | -4.33468 | 19137 ft | 368 kts | 20° |
| 2026-04-20 14:49 | 48.89564 | -4.31871 | 19809 ft | 372 kts | 20° |
| 2026-04-20 14:49 | 48.91935 | -4.30256 | 20487 ft | 376 kts | 19° |
| 2026-04-20 14:50 | 48.94332 | -4.28625 | 21166 ft | 380 kts | 19° |
| 2026-04-20 14:50 | 48.96758 | -4.26973 | 21846 ft | 384 kts | 19° |
| 2026-04-20 14:50 | 48.99209 | -4.25303 | 22532 ft | 388 kts | 19° |
| 2026-04-20 14:50 | 49.01682 | -4.23609 | 23214 ft | 392 kts | 19° |
| 2026-04-20 14:51 | 49.04181 | -4.21896 | 23880 ft | 396 kts | 19° |
| 2026-04-20 14:51 | 49.06704 | -4.20164 | 24462 ft | 400 kts | 19° |
| 2026-04-20 14:51 | 49.09252 | -4.18416 | 25048 ft | 403 kts | 19° |
| 2026-04-20 14:51 | 49.11818 | -4.16658 | 25620 ft | 406 kts | 18° |
| 2026-04-20 14:52 | 49.14408 | -4.14879 | 26180 ft | 410 kts | 19° |
| 2026-04-20 14:52 | 49.17017 | -4.13081 | 26732 ft | 413 kts | 18° |
| 2026-04-20 14:52 | 49.19650 | -4.11262 | 27265 ft | 416 kts | 19° |
| 2026-04-20 14:52 | 49.22296 | -4.09427 | 27788 ft | 419 kts | 19° |
| 2026-04-20 14:53 | 49.24922 | -4.07601 | 28131 ft | 421 kts | 19° |
| 2026-04-20 14:53 | 49.30123 | -4.03962 | 28204 ft | 395 kts | 18° |
| 2026-04-20 14:54 | 49.35060 | -4.00520 | 28203 ft | 387 kts | 18° |
| 2026-04-20 14:54 | 49.39962 | -3.97139 | 28208 ft | 386 kts | 18° |
| 2026-04-20 14:55 | 49.44851 | -3.93753 | 28222 ft | 386 kts | 18° |
| 2026-04-20 14:55 | 49.49738 | -3.90342 | 28208 ft | 386 kts | 18° |
| 2026-04-20 14:56 | 49.54617 | -3.86918 | 28213 ft | 385 kts | 18° |
| 2026-04-20 14:56 | 49.59499 | -3.83488 | 28215 ft | 385 kts | 18° |
| 2026-04-20 14:57 | 49.64376 | -3.80058 | 28221 ft | 386 kts | 18° |
| 2026-04-20 14:57 | 49.69233 | -3.76482 | 28229 ft | 391 kts | 24° |
| 2026-04-20 14:58 | 49.73637 | -3.71353 | 28232 ft | 398 kts | 32° |
| 2026-04-20 14:58 | 49.77929 | -3.66027 | 28229 ft | 398 kts | 32° |
| 2026-04-20 14:59 | 49.82255 | -3.60665 | 28232 ft | 398 kts | 32° |
| 2026-04-20 14:59 | 49.86581 | -3.55299 | 28235 ft | 398 kts | 32° |
| 2026-04-20 15:00 | 49.90902 | -3.49931 | 28238 ft | 398 kts | 32° |
| 2026-04-20 15:00 | 49.95216 | -3.44546 | 28242 ft | 398 kts | 32° |
| 2026-04-20 15:01 | 49.99523 | -3.39154 | 28240 ft | 397 kts | 32° |
| 2026-04-20 15:01 | 50.03825 | -3.33762 | 28244 ft | 397 kts | 32° |
| 2026-04-20 15:02 | 50.08122 | -3.28355 | 28246 ft | 397 kts | 32° |
| 2026-04-20 15:02 | 50.12415 | -3.22947 | 28241 ft | 397 kts | 32° |
| 2026-04-20 15:03 | 50.16713 | -3.17527 | 28247 ft | 397 kts | 32° |
| 2026-04-20 15:03 | 50.21009 | -3.12101 | 28247 ft | 397 kts | 32° |
| 2026-04-20 15:04 | 50.25296 | -3.06662 | 28242 ft | 397 kts | 33° |
| 2026-04-20 15:04 | 50.29587 | -3.01204 | 28248 ft | 398 kts | 33° |
| 2026-04-20 15:05 | 50.33874 | -2.95729 | 28251 ft | 398 kts | 33° |
| 2026-04-20 15:05 | 50.38158 | -2.90242 | 28246 ft | 398 kts | 33° |
| 2026-04-20 15:06 | 50.42440 | -2.84764 | 28245 ft | 397 kts | 32° |
| 2026-04-20 15:06 | 50.46717 | -2.79280 | 28243 ft | 397 kts | 32° |
| 2026-04-20 15:07 | 50.50993 | -2.73772 | 28245 ft | 398 kts | 32° |
| 2026-04-20 15:07 | 50.55267 | -2.68255 | 28244 ft | 398 kts | 32° |
| 2026-04-20 15:08 | 50.59544 | -2.62728 | 28242 ft | 398 kts | 32° |
| 2026-04-20 15:08 | 50.63801 | -2.57144 | 27937 ft | 400 kts | 37° |
| 2026-04-20 15:08 | 50.65619 | -2.53792 | 27622 ft | 405 kts | 50° |
| 2026-04-20 15:09 | 50.66929 | -2.49834 | 27273 ft | 411 kts | 65° |
| 2026-04-20 15:09 | 50.67647 | -2.45434 | 27223 ft | 418 kts | 79° |
| 2026-04-20 15:09 | 50.67746 | -2.40800 | 27250 ft | 433 kts | 91° |
| 2026-04-20 15:09 | 50.67558 | -2.35950 | 27242 ft | 452 kts | 92° |
| 2026-04-20 15:10 | 50.67354 | -2.30963 | 27243 ft | 459 kts | 92° |
| 2026-04-20 15:10 | 50.67212 | -2.27630 | 27243 ft | 461 kts | 92° |
| 2026-04-20 15:10 | 50.66993 | -2.22589 | 27244 ft | 461 kts | 92° |
| 2026-04-20 15:10 | 50.66767 | -2.17539 | 27244 ft | 462 kts | 92° |
| 2026-04-20 15:11 | 50.66538 | -2.12488 | 27246 ft | 462 kts | 92° |
| 2026-04-20 15:11 | 50.66305 | -2.07436 | 27243 ft | 461 kts | 92° |
| 2026-04-20 15:11 | 50.66102 | -2.00846 | 26782 ft | 449 kts | 86° |
| 2026-04-20 15:11 | 50.66172 | -1.95964 | 26285 ft | 444 kts | 86° |
| 2026-04-20 15:12 | 50.66214 | -1.92678 | 25945 ft | 442 kts | 86° |
| 2026-04-20 15:12 | 50.66268 | -1.87862 | 25524 ft | 437 kts | 86° |
| 2026-04-20 15:12 | 50.66321 | -1.83088 | 25026 ft | 434 kts | 86° |
| 2026-04-20 15:12 | 50.66371 | -1.78418 | 24565 ft | 431 kts | 86° |
| 2026-04-20 15:13 | 50.66421 | -1.73713 | 24107 ft | 427 kts | 86° |
| 2026-04-20 15:13 | 50.66470 | -1.69050 | 23616 ft | 424 kts | 86° |
| 2026-04-20 15:13 | 50.66515 | -1.64423 | 23107 ft | 420 kts | 86° |
| 2026-04-20 15:13 | 50.66559 | -1.59844 | 22627 ft | 416 kts | 86° |
| 2026-04-20 15:14 | 50.66602 | -1.55314 | 22175 ft | 412 kts | 86° |
| 2026-04-20 15:14 | 50.66619 | -1.50824 | 21708 ft | 408 kts | 87° |
| 2026-04-20 15:14 | 50.66582 | -1.46374 | 21273 ft | 404 kts | 88° |
| 2026-04-20 15:14 | 50.66509 | -1.41966 | 20819 ft | 401 kts | 89° |
| 2026-04-20 15:15 | 50.66430 | -1.37570 | 20216 ft | 401 kts | 87° |
| 2026-04-20 15:15 | 50.66683 | -1.33222 | 19617 ft | 397 kts | 74° |
| 2026-04-20 15:15 | 50.67506 | -1.29123 | 19140 ft | 388 kts | 63° |
| 2026-04-20 15:15 | 50.68515 | -1.25212 | 18798 ft | 382 kts | 63° |
| 2026-04-20 15:16 | 50.69504 | -1.21363 | 18453 ft | 375 kts | 63° |
| 2026-04-20 15:16 | 50.70473 | -1.17581 | 18068 ft | 369 kts | 64° |
| 2026-04-20 15:16 | 50.71425 | -1.13854 | 17691 ft | 364 kts | 64° |
| 2026-04-20 15:16 | 50.72361 | -1.10169 | 17314 ft | 359 kts | 64° |
| 2026-04-20 15:17 | 50.73284 | -1.06525 | 16942 ft | 355 kts | 64° |
| 2026-04-20 15:17 | 50.74194 | -1.02935 | 16579 ft | 350 kts | 64° |
| 2026-04-20 15:17 | 50.75094 | -0.99382 | 16197 ft | 347 kts | 64° |
| 2026-04-20 15:17 | 50.75985 | -0.95864 | 15818 ft | 344 kts | 65° |
| 2026-04-20 15:18 | 50.76867 | -0.92369 | 15432 ft | 341 kts | 65° |
| 2026-04-20 15:18 | 50.77740 | -0.88898 | 15064 ft | 338 kts | 65° |
| 2026-04-20 15:18 | 50.78606 | -0.85455 | 14693 ft | 336 kts | 65° |
| 2026-04-20 15:18 | 50.79466 | -0.82033 | 14267 ft | 335 kts | 65° |
| 2026-04-20 15:19 | 50.80330 | -0.78603 | 13818 ft | 335 kts | 66° |
| 2026-04-20 15:19 | 50.81118 | -0.75207 | 13401 ft | 334 kts | 73° |
| 2026-04-20 15:19 | 50.81559 | -0.71599 | 13211 ft | 324 kts | 78° |
| 2026-04-20 15:19 | 50.81949 | -0.68186 | 13006 ft | 316 kts | 77° |
| 2026-04-20 15:20 | 50.82346 | -0.64789 | 12663 ft | 313 kts | 77° |
| 2026-04-20 15:20 | 50.82750 | -0.61381 | 12309 ft | 310 kts | 77° |
| 2026-04-20 15:20 | 50.83081 | -0.58578 | 12024 ft | 307 kts | 77° |
| 2026-04-20 15:20 | 50.83459 | -0.55314 | 11706 ft | 303 kts | 77° |
| 2026-04-20 15:21 | 50.83842 | -0.52015 | 11444 ft | 300 kts | 77° |
| 2026-04-20 15:21 | 50.84211 | -0.48826 | 11203 ft | 297 kts | 77° |
| 2026-04-20 15:21 | 50.84580 | -0.45620 | 10959 ft | 295 kts | 77° |
| 2026-04-20 15:21 | 50.84944 | -0.42440 | 10716 ft | 293 kts | 77° |
| 2026-04-20 15:22 | 50.85305 | -0.39278 | 10478 ft | 291 kts | 78° |
| 2026-04-20 15:22 | 50.85662 | -0.36154 | 10285 ft | 284 kts | 78° |
| 2026-04-20 15:22 | 50.86006 | -0.33138 | 10157 ft | 274 kts | 77° |
| 2026-04-20 15:22 | 50.86339 | -0.30225 | 10027 ft | 263 kts | 77° |
| 2026-04-20 15:23 | 50.86657 | -0.27429 | 9866 ft | 254 kts | 77° |
| 2026-04-20 15:23 | 50.86964 | -0.24712 | 9586 ft | 249 kts | 77° |
| 2026-04-20 15:23 | 50.87269 | -0.22022 | 9254 ft | 247 kts | 78° |
| 2026-04-20 15:23 | 50.87565 | -0.19374 | 9060 ft | 239 kts | 78° |
| 2026-04-20 15:24 | 50.87850 | -0.16806 | 8853 ft | 234 kts | 78° |
| 2026-04-20 15:24 | 50.88130 | -0.14277 | 8731 ft | 233 kts | 78° |
| 2026-04-20 15:24 | 50.88411 | -0.11756 | 8625 ft | 232 kts | 78° |
| 2026-04-20 15:24 | 50.88705 | -0.09247 | 8522 ft | 231 kts | 73° |
| 2026-04-20 15:25 | 50.89452 | -0.07061 | 8389 ft | 226 kts | 43° |
| 2026-04-20 15:25 | 50.90768 | -0.05797 | 8260 ft | 224 kts | 15° |
| 2026-04-20 15:25 | 50.92314 | -0.05733 | 8127 ft | 224 kts | 347° |
| 2026-04-20 15:25 | 50.93680 | -0.06903 | 7999 ft | 228 kts | 318° |
| 2026-04-20 15:26 | 50.94604 | -0.08965 | 7866 ft | 232 kts | 303° |
| 2026-04-20 15:26 | 50.95428 | -0.11127 | 7728 ft | 225 kts | 303° |
| 2026-04-20 15:26 | 50.96223 | -0.13212 | 7606 ft | 218 kts | 304° |
| 2026-04-20 15:26 | 50.97009 | -0.15265 | 7483 ft | 217 kts | 304° |
| 2026-04-20 15:27 | 50.97793 | -0.17310 | 7356 ft | 217 kts | 304° |
| 2026-04-20 15:27 | 50.98505 | -0.19421 | 7228 ft | 218 kts | 294° |
| 2026-04-20 15:27 | 50.98938 | -0.21776 | 6823 ft | 226 kts | 287° |
| 2026-04-20 15:27 | 50.99323 | -0.24201 | 6488 ft | 227 kts | 287° |
| 2026-04-20 15:28 | 50.99705 | -0.26623 | 6197 ft | 225 kts | 287° |
| 2026-04-20 15:28 | 51.00081 | -0.29010 | 5933 ft | 221 kts | 287° |
| 2026-04-20 15:28 | 51.00453 | -0.31362 | 5685 ft | 219 kts | 287° |
| 2026-04-20 15:28 | 51.00823 | -0.33705 | 5433 ft | 218 kts | 287° |
| 2026-04-20 15:29 | 51.01194 | -0.36031 | 5184 ft | 217 kts | 287° |
| 2026-04-20 15:29 | 51.01567 | -0.38361 | 4937 ft | 218 kts | 287° |
| 2026-04-20 15:29 | 51.01938 | -0.40696 | 4678 ft | 218 kts | 287° |
| 2026-04-20 15:29 | 51.02307 | -0.43019 | 4431 ft | 217 kts | 287° |
| 2026-04-20 15:30 | 51.02676 | -0.45344 | 4179 ft | 217 kts | 287° |
| 2026-04-20 15:30 | 51.03046 | -0.47672 | 3940 ft | 217 kts | 287° |
| 2026-04-20 15:30 | 51.03415 | -0.49973 | 3688 ft | 218 kts | 286° |
| 2026-04-20 15:30 | 51.03894 | -0.52223 | 3516 ft | 211 kts | 308° |
| 2026-04-20 15:31 | 51.05024 | -0.53562 | 3374 ft | 199 kts | 351° |
| 2026-04-20 15:31 | 51.06361 | -0.53597 | 3339 ft | 197 kts | 7° |
| 2026-04-20 15:31 | 51.07738 | -0.53468 | 3280 ft | 198 kts | 7° |
| 2026-04-20 15:31 | 51.09083 | -0.53231 | 3224 ft | 188 kts | 22° |
| 2026-04-20 15:32 | 51.10088 | -0.52071 | 3157 ft | 177 kts | 56° |
| 2026-04-20 15:32 | 51.10432 | -0.50257 | 3079 ft | 173 kts | 84° |
| 2026-04-20 15:32 | 51.10672 | -0.48392 | 3012 ft | 169 kts | 75° |
| 2026-04-20 15:32 | 51.10944 | -0.46642 | 3012 ft | 157 kts | 76° |
| 2026-04-20 15:33 | 51.11183 | -0.45014 | 2993 ft | 145 kts | 76° |
| 2026-04-20 15:33 | 51.11399 | -0.43505 | 2989 ft | 136 kts | 75° |
| 2026-04-20 15:33 | 51.11605 | -0.42054 | 2910 ft | 135 kts | 77° |
| 2026-04-20 15:33 | 51.11810 | -0.40598 | 2754 ft | 133 kts | 77° |
| 2026-04-20 15:34 | 51.12011 | -0.39168 | 2587 ft | 133 kts | 76° |
| 2026-04-20 15:34 | 51.12212 | -0.37733 | 2406 ft | 130 kts | 76° |
| 2026-04-20 15:34 | 51.12409 | -0.36327 | 2259 ft | 132 kts | 76° |
| 2026-04-20 15:34 | 51.12605 | -0.34926 | 2077 ft | 128 kts | 76° |
| 2026-04-20 15:35 | 51.12796 | -0.33558 | 1892 ft | 125 kts | 76° |
| 2026-04-20 15:35 | 51.12984 | -0.32207 | 1728 ft | 125 kts | 76° |
| 2026-04-20 15:35 | 51.13173 | -0.30855 | 1549 ft | 124 kts | 76° |
| 2026-04-20 15:35 | 51.13361 | -0.29510 | 1385 ft | 124 kts | 75° |
| 2026-04-20 15:36 | 51.13550 | -0.28169 | 1212 ft | 123 kts | 76° |
| 2026-04-20 15:36 | 51.13743 | -0.26837 | 1024 ft | 123 kts | 75° |
| 2026-04-20 15:36 | 51.13922 | -0.25510 | 850 ft | 122 kts | 77° |
| 2026-04-20 15:36 | 51.14108 | -0.24172 | 679 ft | 125 kts | 74° |
| 2026-04-20 15:37 | 51.14289 | -0.22835 | 514 ft | 123 kts | 75° |
| 2026-04-20 15:37 | 51.14473 | -0.21505 | 347 ft | 122 kts | 75° |
| 2026-04-20 15:37 | 51.14655 | -0.20205 | 225 ft | 118 kts | 75° |
| 2026-04-20 15:37 | 51.14804 | -0.19127 | 211 ft | 75 kts | 78° |
| 2026-04-20 15:38 | 51.14890 | -0.18497 | 210 ft | 48 kts | 78° |
| 2026-04-20 15:38 | 51.14959 | -0.18048 | 211 ft | 31 kts | 70° |
| 2026-04-20 15:38 | 51.15049 | -0.17815 | 213 ft | 22 kts | 52° |
| 2026-04-20 15:38 | 51.15132 | -0.17764 | 206 ft | 13 kts | 352° |
| 2026-04-20 15:39 | 51.15188 | -0.17776 | 205 ft | 0 kts | 353° |
| 2026-04-20 15:40 | 51.15193 | -0.17777 | 205 ft | 4 kts | 353° |
| 2026-04-20 15:40 | 51.15252 | -0.17757 | 208 ft | 11 kts | 52° |
| 2026-04-20 15:40 | 51.15279 | -0.17621 | 208 ft | 15 kts | 77° |
| 2026-04-20 15:41 | 51.15300 | -0.17457 | 210 ft | 13 kts | 80° |
| 2026-04-20 15:41 | 51.15347 | -0.17373 | 210 ft | 11 kts | 355° |
| 2026-04-20 15:41 | 51.15431 | -0.17400 | 206 ft | 14 kts | 348° |
| 2026-04-20 15:41 | 51.15546 | -0.17438 | 208 ft | 19 kts | 347° |
| 2026-04-20 15:42 | 51.15678 | -0.17487 | 207 ft | 17 kts | 347° |
| 2026-04-20 15:42 | 51.15762 | -0.17485 | 211 ft | 12 kts | 44° |
| 2026-04-20 15:42 | 51.15784 | -0.17351 | 205 ft | 14 kts | 78° |
| 2026-04-20 15:42 | 51.15803 | -0.17221 | 205 ft | 7 kts | 58° |
| 2026-04-20 15:43 | 51.15857 | -0.17217 | 205 ft | 9 kts | 346° |
| 2026-04-20 15:43 | 51.15898 | -0.17231 | 212 ft | 0 kts | 348° |